sensor_id;sensor_type;location;lat;lon;timestamp;temperature;humidity
40323;DHT22;26030;51.164;17.100;2022-12-07T00:00:38;22.20;57.40
40323;DHT22;26030;51.164;17.100;2022-12-07T00:05:44;22.00;57.90
40323;DHT22;26030;51.164;17.100;2022-12-07T00:10:49;22.00;57.60
40323;DHT22;26030;51.164;17.100;2022-12-07T00:15:53;21.90;57.60
40323;DHT22;26030;51.164;17.100;2022-12-07T00:21:00;21.80;57.50
40323;DHT22;26030;51.164;17.100;2022-12-07T00:26:10;21.80;57.70
40323;DHT22;26030;51.164;17.100;2022-12-07T00:31:16;21.70;58.10
40323;DHT22;26030;51.164;17.100;2022-12-07T00:36:22;21.70;57.60
40323;DHT22;26030;51.164;17.100;2022-12-07T00:41:29;21.60;57.60
40323;DHT22;26030;51.164;17.100;2022-12-07T00:46:35;21.60;57.60
40323;DHT22;26030;51.164;17.100;2022-12-07T00:51:41;21.60;57.90
40323;DHT22;26030;51.164;17.100;2022-12-07T00:56:45;21.60;57.60
40323;DHT22;26030;51.164;17.100;2022-12-07T01:01:48;21.50;57.70
40323;DHT22;26030;51.164;17.100;2022-12-07T01:06:52;21.50;57.80
40323;DHT22;26030;51.164;17.100;2022-12-07T01:11:56;21.40;57.80
40323;DHT22;26030;51.164;17.100;2022-12-07T01:17:00;21.40;58.00
40323;DHT22;26030;51.164;17.100;2022-12-07T01:22:05;21.40;58.00
40323;DHT22;26030;51.164;17.100;2022-12-07T01:27:09;21.30;57.70
40323;DHT22;26030;51.164;17.100;2022-12-07T01:32:13;21.30;58.10
40323;DHT22;26030;51.164;17.100;2022-12-07T01:37:18;21.20;58.10
40323;DHT22;26030;51.164;17.100;2022-12-07T01:42:22;21.20;58.10
40323;DHT22;26030;51.164;17.100;2022-12-07T01:47:27;21.20;58.10
40323;DHT22;26030;51.164;17.100;2022-12-07T01:52:33;21.20;58.20
40323;DHT22;26030;51.164;17.100;2022-12-07T01:57:41;21.10;58.20
40323;DHT22;26030;51.164;17.100;2022-12-07T02:03:00;21.30;58.20
40323;DHT22;26030;51.164;17.100;2022-12-07T02:08:16;21.70;57.60
40323;DHT22;26030;51.164;17.100;2022-12-07T02:13:23;22.00;56.60
40323;DHT22;26030;51.164;17.100;2022-12-07T02:34:34;22.50;55.70
40323;DHT22;26030;51.164;17.100;2022-12-07T02:39:51;22.60;55.00
40323;DHT22;26030;51.164;17.100;2022-12-07T02:45:02;22.70;54.80
40323;DHT22;26030;51.164;17.100;2022-12-07T02:50:23;22.70;55.00
40323;DHT22;26030;51.164;17.100;2022-12-07T02:55:37;22.80;54.90
40323;DHT22;26030;51.164;17.100;2022-12-07T03:00:49;22.80;54.30
40323;DHT22;26030;51.164;17.100;2022-12-07T03:05:59;22.90;54.60
40323;DHT22;26030;51.164;17.100;2022-12-07T03:11:10;22.90;54.50
40323;DHT22;26030;51.164;17.100;2022-12-07T03:16:35;22.90;54.30
40323;DHT22;26030;51.164;17.100;2022-12-07T03:27:09;23.00;54.30
40323;DHT22;26030;51.164;17.100;2022-12-07T03:32:39;22.90;54.10
40323;DHT22;26030;51.164;17.100;2022-12-07T03:43:29;23.00;54.10
40323;DHT22;26030;51.164;17.100;2022-12-07T03:48:35;23.10;54.00
40323;DHT22;26030;51.164;17.100;2022-12-07T03:53:51;23.10;54.00
40323;DHT22;26030;51.164;17.100;2022-12-07T03:59:11;23.10;53.90
40323;DHT22;26030;51.164;17.100;2022-12-07T04:04:23;23.10;53.90
40323;DHT22;26030;51.164;17.100;2022-12-07T04:09:32;23.20;53.80
40323;DHT22;26030;51.164;17.100;2022-12-07T04:14:38;23.20;53.70
40323;DHT22;26030;51.164;17.100;2022-12-07T04:19:45;23.20;53.70
40323;DHT22;26030;51.164;17.100;2022-12-07T04:24:49;23.20;53.70
40323;DHT22;26030;51.164;17.100;2022-12-07T04:29:53;23.10;54.30
40323;DHT22;26030;51.164;17.100;2022-12-07T04:35:01;23.00;54.10
40323;DHT22;26030;51.164;17.100;2022-12-07T04:40:07;22.90;54.50
40323;DHT22;26030;51.164;17.100;2022-12-07T04:45:17;22.70;54.70
40323;DHT22;26030;51.164;17.100;2022-12-07T04:50:24;22.60;55.00
40323;DHT22;26030;51.164;17.100;2022-12-07T04:55:27;22.50;55.20
40323;DHT22;26030;51.164;17.100;2022-12-07T05:00:45;22.40;55.20
40323;DHT22;26030;51.164;17.100;2022-12-07T05:05:50;22.30;55.80
40323;DHT22;26030;51.164;17.100;2022-12-07T05:10:54;22.30;55.60
40323;DHT22;26030;51.164;17.100;2022-12-07T05:15:58;22.20;55.90
40323;DHT22;26030;51.164;17.100;2022-12-07T05:21:05;22.10;55.90
40323;DHT22;26030;51.164;17.100;2022-12-07T05:26:12;22.10;56.10
40323;DHT22;26030;51.164;17.100;2022-12-07T05:31:16;22.00;56.20
40323;DHT22;26030;51.164;17.100;2022-12-07T05:36:21;21.90;56.20
40323;DHT22;26030;51.164;17.100;2022-12-07T05:41:26;21.90;56.30
40323;DHT22;26030;51.164;17.100;2022-12-07T05:46:49;21.80;56.60
40323;DHT22;26030;51.164;17.100;2022-12-07T05:51:55;21.70;56.40
40323;DHT22;26030;51.164;17.100;2022-12-07T05:56:59;21.80;56.50
40323;DHT22;26030;51.164;17.100;2022-12-07T06:02:05;21.70;56.60
40323;DHT22;26030;51.164;17.100;2022-12-07T06:07:12;21.70;56.50
40323;DHT22;26030;51.164;17.100;2022-12-07T06:12:22;21.60;56.80
40323;DHT22;26030;51.164;17.100;2022-12-07T06:17:39;21.50;56.60
40323;DHT22;26030;51.164;17.100;2022-12-07T06:22:43;21.50;56.90
40323;DHT22;26030;51.164;17.100;2022-12-07T06:27:51;21.40;56.80
40323;DHT22;26030;51.164;17.100;2022-12-07T06:32:55;21.40;56.90
40323;DHT22;26030;51.164;17.100;2022-12-07T06:37:59;21.30;56.90
40323;DHT22;26030;51.164;17.100;2022-12-07T06:43:03;21.30;57.10
40323;DHT22;26030;51.164;17.100;2022-12-07T06:48:08;21.30;57.10
40323;DHT22;26030;51.164;17.100;2022-12-07T06:53:12;21.20;57.10
40323;DHT22;26030;51.164;17.100;2022-12-07T06:58:19;21.40;57.70
40323;DHT22;26030;51.164;17.100;2022-12-07T07:03:24;21.80;56.60
40323;DHT22;26030;51.164;17.100;2022-12-07T07:08:30;22.10;55.80
40323;DHT22;26030;51.164;17.100;2022-12-07T07:13:34;22.30;55.70
40323;DHT22;26030;51.164;17.100;2022-12-07T07:18:38;22.40;55.60
40323;DHT22;26030;51.164;17.100;2022-12-07T07:23:43;22.50;55.10
40323;DHT22;26030;51.164;17.100;2022-12-07T07:28:57;22.50;55.00
40323;DHT22;26030;51.164;17.100;2022-12-07T07:34:06;22.60;54.40
40323;DHT22;26030;51.164;17.100;2022-12-07T07:39:11;22.50;54.40
40323;DHT22;26030;51.164;17.100;2022-12-07T07:44:19;22.60;54.50
40323;DHT22;26030;51.164;17.100;2022-12-07T07:49:22;22.70;53.70
40323;DHT22;26030;51.164;17.100;2022-12-07T07:54:27;22.80;53.50
40323;DHT22;26030;51.164;17.100;2022-12-07T07:59:31;22.80;53.20
40323;DHT22;26030;51.164;17.100;2022-12-07T08:04:37;22.90;53.00
40323;DHT22;26030;51.164;17.100;2022-12-07T08:09:41;22.90;53.30
40323;DHT22;26030;51.164;17.100;2022-12-07T08:14:45;22.90;53.40
40323;DHT22;26030;51.164;17.100;2022-12-07T08:19:49;22.90;53.40
40323;DHT22;26030;51.164;17.100;2022-12-07T08:24:55;22.90;53.40
40323;DHT22;26030;51.164;17.100;2022-12-07T08:30:00;22.90;52.90
40323;DHT22;26030;51.164;17.100;2022-12-07T08:35:07;22.90;53.10
40323;DHT22;26030;51.164;17.100;2022-12-07T08:40:11;22.90;53.20
40323;DHT22;26030;51.164;17.100;2022-12-07T08:45:23;23.10;53.00
40323;DHT22;26030;51.164;17.100;2022-12-07T08:50:30;23.30;52.00
40323;DHT22;26030;51.164;17.100;2022-12-07T08:55:38;23.40;52.30
40323;DHT22;26030;51.164;17.100;2022-12-07T09:00:42;23.30;52.30
40323;DHT22;26030;51.164;17.100;2022-12-07T09:05:48;23.30;52.40
40323;DHT22;26030;51.164;17.100;2022-12-07T09:10:54;23.30;53.00
40323;DHT22;26030;51.164;17.100;2022-12-07T09:16:05;23.20;53.10
40323;DHT22;26030;51.164;17.100;2022-12-07T09:21:11;23.10;53.80
40323;DHT22;26030;51.164;17.100;2022-12-07T09:26:41;23.10;53.80
40323;DHT22;26030;51.164;17.100;2022-12-07T09:31:58;23.00;52.90
40323;DHT22;26030;51.164;17.100;2022-12-07T09:37:14;22.90;53.10
40323;DHT22;26030;51.164;17.100;2022-12-07T09:47:49;22.70;53.20
40323;DHT22;26030;51.164;17.100;2022-12-07T09:53:08;22.70;53.50
40323;DHT22;26030;51.164;17.100;2022-12-07T09:58:31;22.60;53.60
40323;DHT22;26030;51.164;17.100;2022-12-07T10:04:25;22.50;54.10
40323;DHT22;26030;51.164;17.100;2022-12-07T10:09:12;22.50;53.80
40323;DHT22;26030;51.164;17.100;2022-12-07T10:14:17;22.40;53.90
40323;DHT22;26030;51.164;17.100;2022-12-07T10:19:24;22.30;54.00
40323;DHT22;26030;51.164;17.100;2022-12-07T10:24:31;22.30;54.20
40323;DHT22;26030;51.164;17.100;2022-12-07T10:29:38;22.20;54.60
40323;DHT22;26030;51.164;17.100;2022-12-07T10:34:43;22.10;54.50
40323;DHT22;26030;51.164;17.100;2022-12-07T10:39:55;22.10;54.90
40323;DHT22;26030;51.164;17.100;2022-12-07T10:56:04;21.80;54.90
40323;DHT22;26030;51.164;17.100;2022-12-07T11:18:41;21.70;55.30
40323;DHT22;26030;51.164;17.100;2022-12-07T11:34:36;21.60;55.00
40323;DHT22;26030;51.164;17.100;2022-12-07T11:39:45;21.60;55.30
40323;DHT22;26030;51.164;17.100;2022-12-07T12:00:49;21.50;55.10
40323;DHT22;26030;51.164;17.100;2022-12-07T12:05:56;21.40;55.10
40323;DHT22;26030;51.164;17.100;2022-12-07T12:22:22;21.90;54.10
40323;DHT22;26030;51.164;17.100;2022-12-07T12:27:55;22.20;53.10
40323;DHT22;26030;51.164;17.100;2022-12-07T12:33:02;22.40;53.10
40323;DHT22;26030;51.164;17.100;2022-12-07T12:43:52;22.60;52.10
40323;DHT22;26030;51.164;17.100;2022-12-07T12:49:43;22.80;52.00
40323;DHT22;26030;51.164;17.100;2022-12-07T12:55:15;22.80;51.60
40323;DHT22;26030;51.164;17.100;2022-12-07T13:00:30;22.90;51.60
40323;DHT22;26030;51.164;17.100;2022-12-07T13:05:38;22.90;51.90
40323;DHT22;26030;51.164;17.100;2022-12-07T13:10:48;23.00;51.70
40323;DHT22;26030;51.164;17.100;2022-12-07T13:15:53;23.00;51.60
40323;DHT22;26030;51.164;17.100;2022-12-07T13:26:44;22.90;51.90
40323;DHT22;26030;51.164;17.100;2022-12-07T13:31:54;23.00;51.90
40323;DHT22;26030;51.164;17.100;2022-12-07T13:37:09;23.00;51.40
40323;DHT22;26030;51.164;17.100;2022-12-07T13:42:27;23.00;51.60
40323;DHT22;26030;51.164;17.100;2022-12-07T13:47:36;23.00;51.50
40323;DHT22;26030;51.164;17.100;2022-12-07T13:53:01;23.10;51.50
40323;DHT22;26030;51.164;17.100;2022-12-07T13:58:11;23.10;51.40
40323;DHT22;26030;51.164;17.100;2022-12-07T14:08:34;23.20;51.30
40323;DHT22;26030;51.164;17.100;2022-12-07T14:13:44;23.20;51.30
40323;DHT22;26030;51.164;17.100;2022-12-07T14:30:28;23.40;50.80
40323;DHT22;26030;51.164;17.100;2022-12-07T14:35:40;23.40;51.00
40323;DHT22;26030;51.164;17.100;2022-12-07T14:40:47;23.30;51.10
40323;DHT22;26030;51.164;17.100;2022-12-07T14:45:55;23.10;51.30
40323;DHT22;26030;51.164;17.100;2022-12-07T14:51:23;22.90;51.70
40323;DHT22;26030;51.164;17.100;2022-12-07T14:57:10;22.80;52.00
40323;DHT22;26030;51.164;17.100;2022-12-07T15:02:15;22.70;52.20
40323;DHT22;26030;51.164;17.100;2022-12-07T15:07:21;22.60;52.40
40323;DHT22;26030;51.164;17.100;2022-12-07T15:12:40;22.70;52.40
40323;DHT22;26030;51.164;17.100;2022-12-07T15:17:46;22.60;52.60
40323;DHT22;26030;51.164;17.100;2022-12-07T15:22:53;22.60;52.50
40323;DHT22;26030;51.164;17.100;2022-12-07T15:27:58;22.60;52.90
40323;DHT22;26030;51.164;17.100;2022-12-07T15:33:13;22.50;52.80
40323;DHT22;26030;51.164;17.100;2022-12-07T15:38:27;22.50;52.60
40323;DHT22;26030;51.164;17.100;2022-12-07T15:44:05;22.50;52.80
40323;DHT22;26030;51.164;17.100;2022-12-07T15:49:38;22.40;52.40
40323;DHT22;26030;51.164;17.100;2022-12-07T15:54:49;22.20;52.50
40323;DHT22;26030;51.164;17.100;2022-12-07T15:59:54;22.10;52.40
40323;DHT22;26030;51.164;17.100;2022-12-07T16:05:04;22.00;52.80
40323;DHT22;26030;51.164;17.100;2022-12-07T16:10:16;21.90;52.50
40323;DHT22;26030;51.164;17.100;2022-12-07T16:15:27;21.90;52.80
40323;DHT22;26030;51.164;17.100;2022-12-07T16:20:32;21.80;53.30
40323;DHT22;26030;51.164;17.100;2022-12-07T16:25:38;21.70;52.80
40323;DHT22;26030;51.164;17.100;2022-12-07T16:30:59;21.70;52.70
40323;DHT22;26030;51.164;17.100;2022-12-07T16:37:15;21.60;52.10
40323;DHT22;26030;51.164;17.100;2022-12-07T16:42:20;21.60;52.00
40323;DHT22;26030;51.164;17.100;2022-12-07T16:47:28;21.50;51.80
40323;DHT22;26030;51.164;17.100;2022-12-07T16:52:35;21.50;51.80
40323;DHT22;26030;51.164;17.100;2022-12-07T16:57:40;21.40;52.10
40323;DHT22;26030;51.164;17.100;2022-12-07T17:02:45;21.30;51.60
40323;DHT22;26030;51.164;17.100;2022-12-07T17:07:49;21.40;50.90
40323;DHT22;26030;51.164;17.100;2022-12-07T17:12:53;21.70;50.40
40323;DHT22;26030;51.164;17.100;2022-12-07T17:17:58;22.00;49.50
40323;DHT22;26030;51.164;17.100;2022-12-07T17:23:04;22.20;49.10
40323;DHT22;26030;51.164;17.100;2022-12-07T17:28:09;22.20;49.20
40323;DHT22;26030;51.164;17.100;2022-12-07T17:33:13;22.30;49.40
40323;DHT22;26030;51.164;17.100;2022-12-07T17:38:30;22.50;49.30
40323;DHT22;26030;51.164;17.100;2022-12-07T17:43:38;22.60;49.80
40323;DHT22;26030;51.164;17.100;2022-12-07T17:48:42;22.60;50.40
40323;DHT22;26030;51.164;17.100;2022-12-07T17:53:49;22.70;50.70
40323;DHT22;26030;51.164;17.100;2022-12-07T17:59:14;22.70;50.20
40323;DHT22;26030;51.164;17.100;2022-12-07T18:04:25;22.80;50.10
40323;DHT22;26030;51.164;17.100;2022-12-07T18:09:30;22.80;51.40
40323;DHT22;26030;51.164;17.100;2022-12-07T18:14:35;22.80;52.40
40323;DHT22;26030;51.164;17.100;2022-12-07T18:20:09;22.90;51.80
40323;DHT22;26030;51.164;17.100;2022-12-07T18:25:13;23.00;51.10
40323;DHT22;26030;51.164;17.100;2022-12-07T18:30:21;23.10;50.80
40323;DHT22;26030;51.164;17.100;2022-12-07T18:35:59;23.10;50.60
40323;DHT22;26030;51.164;17.100;2022-12-07T18:41:11;23.10;50.90
40323;DHT22;26030;51.164;17.100;2022-12-07T18:46:27;23.10;51.00
40323;DHT22;26030;51.164;17.100;2022-12-07T18:51:48;23.00;52.10
40323;DHT22;26030;51.164;17.100;2022-12-07T18:56:52;22.90;52.30
40323;DHT22;26030;51.164;17.100;2022-12-07T19:02:06;22.70;52.10
40323;DHT22;26030;51.164;17.100;2022-12-07T19:07:26;22.70;51.70
40323;DHT22;26030;51.164;17.100;2022-12-07T19:12:31;22.60;52.10
40323;DHT22;26030;51.164;17.100;2022-12-07T19:17:35;22.50;51.90
40323;DHT22;26030;51.164;17.100;2022-12-07T19:22:39;22.40;52.70
40323;DHT22;26030;51.164;17.100;2022-12-07T19:27:56;22.40;53.00
40323;DHT22;26030;51.164;17.100;2022-12-07T19:33:00;22.30;52.60
40323;DHT22;26030;51.164;17.100;2022-12-07T19:38:19;22.20;52.90
40323;DHT22;26030;51.164;17.100;2022-12-07T19:43:28;22.10;53.10
40323;DHT22;26030;51.164;17.100;2022-12-07T19:48:33;22.00;53.20
40323;DHT22;26030;51.164;17.100;2022-12-07T19:53:37;22.00;53.40
40323;DHT22;26030;51.164;17.100;2022-12-07T19:58:42;22.00;54.50
40323;DHT22;26030;51.164;17.100;2022-12-07T20:03:51;21.90;56.10
40323;DHT22;26030;51.164;17.100;2022-12-07T20:09:04;21.90;56.30
40323;DHT22;26030;51.164;17.100;2022-12-07T20:14:08;21.80;55.80
40323;DHT22;26030;51.164;17.100;2022-12-07T20:19:14;21.80;54.90
40323;DHT22;26030;51.164;17.100;2022-12-07T20:24:36;21.70;54.30
40323;DHT22;26030;51.164;17.100;2022-12-07T20:29:47;21.70;54.60
40323;DHT22;26030;51.164;17.100;2022-12-07T20:34:53;21.60;54.60
40323;DHT22;26030;51.164;17.100;2022-12-07T20:40:07;21.60;54.90
40323;DHT22;26030;51.164;17.100;2022-12-07T20:45:24;21.60;55.20
40323;DHT22;26030;51.164;17.100;2022-12-07T20:50:30;21.60;54.70
40323;DHT22;26030;51.164;17.100;2022-12-07T20:55:44;21.60;54.10
40323;DHT22;26030;51.164;17.100;2022-12-07T21:00:56;21.50;54.00
40323;DHT22;26030;51.164;17.100;2022-12-07T21:06:17;21.50;53.60
40323;DHT22;26030;51.164;17.100;2022-12-07T21:11:22;21.40;53.70
40323;DHT22;26030;51.164;17.100;2022-12-07T21:16:28;21.30;53.50
40323;DHT22;26030;51.164;17.100;2022-12-07T21:21:33;21.20;53.50
40323;DHT22;26030;51.164;17.100;2022-12-07T21:26:39;21.20;53.30
40323;DHT22;26030;51.164;17.100;2022-12-07T21:31:45;21.20;53.50
40323;DHT22;26030;51.164;17.100;2022-12-07T21:36:49;21.00;53.40
40323;DHT22;26030;51.164;17.100;2022-12-07T21:41:52;21.10;53.20
40323;DHT22;26030;51.164;17.100;2022-12-07T21:47:26;21.40;52.60
40323;DHT22;26030;51.164;17.100;2022-12-07T21:52:42;21.70;51.70
40323;DHT22;26030;51.164;17.100;2022-12-07T21:58:01;21.90;51.10
40323;DHT22;26030;51.164;17.100;2022-12-07T22:03:09;22.00;50.50
40323;DHT22;26030;51.164;17.100;2022-12-07T22:08:46;22.10;50.20
40323;DHT22;26030;51.164;17.100;2022-12-07T22:13:57;22.30;50.00
40323;DHT22;26030;51.164;17.100;2022-12-07T22:19:23;22.30;49.70
40323;DHT22;26030;51.164;17.100;2022-12-07T22:24:28;22.40;49.60
40323;DHT22;26030;51.164;17.100;2022-12-07T22:29:45;22.50;50.80
40323;DHT22;26030;51.164;17.100;2022-12-07T22:35:05;22.50;49.80
40323;DHT22;26030;51.164;17.100;2022-12-07T22:40:10;22.40;49.50
40323;DHT22;26030;51.164;17.100;2022-12-07T22:45:16;22.40;49.70
40323;DHT22;26030;51.164;17.100;2022-12-07T22:50:21;22.50;50.30
40323;DHT22;26030;51.164;17.100;2022-12-07T22:55:47;22.60;50.60
40323;DHT22;26030;51.164;17.100;2022-12-07T23:01:05;22.70;50.90
40323;DHT22;26030;51.164;17.100;2022-12-07T23:06:34;22.80;51.00
40323;DHT22;26030;51.164;17.100;2022-12-07T23:11:41;22.90;51.10
40323;DHT22;26030;51.164;17.100;2022-12-07T23:17:07;22.90;51.10
40323;DHT22;26030;51.164;17.100;2022-12-07T23:22:11;23.00;51.50
40323;DHT22;26030;51.164;17.100;2022-12-07T23:27:17;23.10;50.90
40323;DHT22;26030;51.164;17.100;2022-12-07T23:32:30;23.20;51.50
40323;DHT22;26030;51.164;17.100;2022-12-07T23:37:40;23.10;51.00
40323;DHT22;26030;51.164;17.100;2022-12-07T23:42:50;23.20;51.10
40323;DHT22;26030;51.164;17.100;2022-12-07T23:48:21;23.30;51.60
40323;DHT22;26030;51.164;17.100;2022-12-07T23:53:27;23.30;51.20
40323;DHT22;26030;51.164;17.100;2022-12-07T23:58:35;23.40;51.10
